15:07
Airports
History
Links
Donate
Help keep this website running!
PayPal
Bitcoin
This page is community maintained. The information is intended for PC simulator navigation or reference.
Always use approved charts for navigation.
EDAM
MERSEBURG
MERSEBURG (EDAM)
Merseburg (Saale), Sachsen-Anhalt, Germany (6217)
(U)
Lat/Lng:51° 21' 46.8" N / 11° 56' 27" E
51.362999 / 11.940834
Elevation:340'ft / 104mMSL
ID / ICAO:EDAM
Runways:1
Longest:08-26
Concrete 1,143m / 3,749ft
Nearby Weather14:50 GMT 2018-01-16
Nearby weather at EDDP, Leipzig-Halle located 13.4 nautical miles from EDAM
Altimeter: 29.23
Visibility: 6.2 statute miles
Wind: 20 knots (from 240°)
Temp: 4°c / 39°f
Humidity: 86.8%

METAR: EDDP 161450Z 24020KT 9999 VCSH FEW008 SCT020CB BKN050 04/02 Q0990 TEMPO 23020G35KT

(Powered by phpweather)
Airport Radio Frequencies
Tower: 125.8, 122.9
Approach: 124.17
Nearby VORs <50NM
Nearby NDBs
Runway 08 / 26
Dimensions:1142.6 x 29.9m 3749' x 98'ft
Surface:Concrete
Runway 08 [A]Runway 26 [B]
Heading:080°TH 260°TH
Lat:
Lng:
51° 21' 43.76"N
11° 55' 57.94"E
51° 21' 49.83"N
11° 56' 56.06"E
User Notes and Comments
51° 21' 46.8" N / 11° 56' 27" E
Distance To
Airport ID:
Nearby Airports
(C) Leipzig-Halle 13.4 NM
EDDP ( WX ) ENE 72°
(C) LAUCHA 13.4 NM
EDBL SW 232°
(C) Halle-Oppin 13.9 NM
EDAQ NNE 20°
4 OBERRISSDORF 19.4 NM
EDUO NW 309°
(C) RENNERITZ 20.4 NM
EDOX NE 38°
(C) BOEHLEN 21.1 NM
EDOE ESE 119°
(U) ALLSTEDT 21.8 NM
EDBT W 272°
VFR Chart
Flight Planning at SkyVector.com